Terminal Aerodrome Forecast
Issued by NWS

Home | Current Version | Previous Version | Text Only | Print | Product List | Glossary On
Versions: 1 2 3 4 5 6 7 8 9 10 11 12 13 14 15 16 17 18 19 20
000
FTUS44 KMAF 020528
TAFINK
TAF
KINK 020528Z 0206/0306 13008KT P6SM SCT080 SCT250
     FM022000 15010G17KT P6SM SCT080 SCT110
     FM030100 14010KT P6SM SCT080 SCT110=

USA.gov is the U.S. government's official web portal to all federal, state and local government web resources and services.